Time;durP1;ratioP1;P1;durP2;ratioP2;P2;SDS_P1;SDS_P2;PMS_P1;PMS_P2;Temp;Humidity;BMP_temperature;BMP_pressure;BME280_temperature;BME280_humidity;BME280_pressure;Samples;Min_cycle;Max_cycle;Signal;HPM_P1;HPM_P2
2023/03/17 00:06:46;;;;;;;35.00;20.00;;;-1.20;99.90;;;;;;5718534;24;20334;-82
2023/03/17 00:42:27;;;;;;;43.83;26.30;;;-1.40;99.90;;;;;;5847509;24;20162;-81
2023/03/17 01:07:33;;;;;;;53.87;31.53;;;-1.50;99.90;;;;;;5802778;24;20786;-82
2023/03/17 01:27:58;;;;;;;52.30;30.20;;;-2.00;99.90;;;;;;5657582;24;20472;-84
2023/03/17 02:13:33;;;;;;;68.50;39.77;;;-2.40;99.90;;;;;;5682691;24;20252;-82
2023/03/17 02:44:20;;;;;;;78.73;43.03;;;-2.70;99.90;;;;;;5834402;24;20576;-84
2023/03/17 03:14:06;;;;;;;103.70;53.03;;;-2.90;99.90;;;;;;5664573;24;20276;-81
2023/03/17 04:20:27;;;;;;;113.70;60.30;;;-3.10;99.90;;;;;;5634557;24;20192;-82
2023/03/17 04:50:50;;;;;;;101.20;57.23;;;-3.40;99.90;;;;;;5645168;24;20196;-83
2023/03/17 05:11:19;;;;;;;99.27;54.50;;;-2.80;99.90;;;;;;5588589;25;20181;-84
2023/03/17 06:57:38;;;;;;;59.40;39.60;;;1.00;99.90;;;;;;5596856;24;20953;-83
2023/03/17 07:28:09;;;;;;;44.07;30.40;;;1.60;99.90;;;;;;5760818;24;20224;-80
2023/03/17 07:58:37;;;;;;;40.63;25.53;;;3.40;97.20;;;;;;5652283;24;20231;-78
2023/03/17 08:18:58;;;;;;;31.10;20.53;;;4.30;93.10;;;;;;5671379;24;20648;-81
2023/03/17 09:24:38;;;;;;;18.77;11.37;;;6.10;79.70;;;;;;5537919;25;20226;-79
2023/03/17 10:00:28;;;;;;;11.43;7.77;;;6.70;74.10;;;;;;4963950;27;20212;-79
2023/03/17 10:30:49;;;;;;;10.53;6.90;;;7.20;69.10;;;;;;4773148;28;20236;-82
2023/03/17 10:55:43;;;;;;;9.87;6.70;;;7.70;66.90;;;;;;4595864;30;20752;-83
2023/03/17 11:26:07;;;;;;;11.07;6.97;;;8.10;55.00;;;;;;4779843;29;20336;-80
2023/03/17 12:01:50;;;;;;;12.47;7.83;;;8.60;53.80;;;;;;4720806;29;20476;-80
2023/03/17 12:27:15;;;;;;;11.70;9.47;;;9.00;54.30;;;;;;4701339;29;20498;-80
2023/03/17 12:47:51;;;;;;;14.73;9.93;;;9.10;51.10;;;;;;4563353;30;20242;-81
2023/03/17 13:17:40;;;;;;;11.60;7.03;;;9.70;48.00;;;;;;4561153;30;21115;-83
2023/03/17 13:48:27;;;;;;;12.27;8.30;;;9.50;46.40;;;;;;4606250;30;20641;-82
2023/03/17 14:09:03;;;;;;;12.47;9.03;;;9.50;46.60;;;;;;4732404;29;20208;-80
2023/03/17 14:44:18;;;;;;;9.90;8.07;;;9.50;46.30;;;;;;4873496;28;20205;-82
2023/03/17 15:04:57;;;;;;;11.73;7.73;;;9.30;45.20;;;;;;4747023;29;21130;-81
2023/03/17 15:35:04;;;;;;;9.37;7.20;;;8.70;46.30;;;;;;4682572;29;20625;-81
2023/03/17 16:00:42;;;;;;;11.43;7.50;;;8.30;47.30;;;;;;4717422;29;20248;-80
2023/03/17 16:30:32;;;;;;;14.23;7.40;;;7.50;57.80;;;;;;4559238;30;21113;-80
2023/03/17 17:06:36;;;;;;;12.60;7.17;;;6.30;69.00;;;;;;4892954;28;20249;-82
2023/03/17 17:36:59;;;;;;;11.27;8.17;;;6.10;73.20;;;;;;4857752;28;20384;-81
2023/03/17 17:57:20;;;;;;;12.03;8.30;;;5.70;74.50;;;;;;4664207;29;20535;-81
2023/03/17 19:13:39;;;;;;;15.20;9.70;;;5.00;77.20;;;;;;6135378;23;20157;-84
2023/03/17 19:17:51;;;;;;;20.43;9.90;;;4.90;77.40;;;;;;6070371;23;20553;-81
2023/03/17 19:43:42;;;;;;;25.17;11.53;;;4.70;78.00;;;;;;5822429;24;20768;-82
2023/03/17 20:09:11;;;;;;;20.40;12.60;;;4.40;79.00;;;;;;5856170;24;20570;-84
2023/03/17 20:39:04;;;;;;;19.50;11.43;;;4.40;77.50;;;;;;5678765;24;20456;-82
2023/03/17 21:30:12;;;;;;;14.00;10.00;;;4.20;78.50;;;;;;5752118;24;20285;-83
2023/03/17 21:55:44;;;;;;;14.73;10.40;;;4.10;78.90;;;;;;5703958;24;20171;-80
2023/03/17 22:31:18;;;;;;;15.50;9.50;;;4.00;78.50;;;;;;5884704;23;20639;-84
2023/03/17 23:01:30;;;;;;;13.67;8.50;;;4.00;78.20;;;;;;5795223;24;20167;-82
2023/03/17 23:27:08;;;;;;;13.17;8.07;;;3.80;78.00;;;;;;5977703;23;20611;-82
